createdAt,value
2017-09-25T00:01:14.248Z,22.47
2017-09-25T00:03:40.958Z,21.50
2017-09-25T00:06:07.737Z,20.90
2017-09-25T00:08:34.443Z,20.50
2017-09-25T00:11:01.981Z,20.10
2017-09-25T00:13:28.552Z,21.80
2017-09-25T00:15:56.004Z,20.80
2017-09-25T00:18:22.887Z,21.13
2017-09-25T00:20:49.735Z,20.50
2017-09-25T00:23:16.360Z,21.33
2017-09-25T00:25:43.879Z,21.67
2017-09-25T00:28:10.500Z,23.00
2017-09-25T00:30:37.776Z,21.23
2017-09-25T00:33:04.556Z,20.20
2017-09-25T00:35:31.899Z,21.43
2017-09-25T00:37:59.405Z,21.10
2017-09-25T00:40:26.351Z,22.07
2017-09-25T00:42:52.935Z,22.20
2017-09-25T00:45:19.620Z,23.20
2017-09-25T00:47:46.252Z,22.30
2017-09-25T00:50:13.004Z,24.03
2017-09-25T00:52:51.720Z,23.57
2017-09-25T00:55:27.461Z,22.27
2017-09-25T00:57:54.103Z,22.87
2017-09-25T01:00:33.741Z,22.53
2017-09-25T01:03:12.424Z,21.17
2017-09-25T01:05:51.216Z,21.80
2017-09-25T01:08:18.006Z,20.77
2017-09-25T01:10:44.683Z,22.70
2017-09-25T01:13:11.556Z,21.13
2017-09-25T01:15:38.490Z,21.10
2017-09-25T01:18:05.222Z,20.70
2017-09-25T01:20:32.019Z,22.37
2017-09-25T01:22:58.803Z,21.33
2017-09-25T01:25:25.541Z,19.80
2017-09-25T01:27:52.284Z,23.43
2017-09-25T01:30:19.845Z,22.73
2017-09-25T01:32:47.340Z,21.87
2017-09-25T01:35:14.861Z,23.20
2017-09-25T01:37:41.823Z,22.07
2017-09-25T01:40:08.509Z,20.60
2017-09-25T01:42:35.926Z,22.27
2017-09-25T01:45:09.550Z,22.30
2017-09-25T01:47:36.267Z,21.70
2017-09-25T01:50:02.945Z,20.90
2017-09-25T01:52:29.604Z,22.73
2017-09-25T01:54:56.439Z,23.10
2017-09-25T01:57:23.017Z,21.57
2017-09-25T01:59:50.397Z,21.43
2017-09-25T02:02:17.007Z,22.53
2017-09-25T02:04:44.665Z,22.20
2017-09-25T02:07:12.283Z,22.07
2017-09-25T02:09:38.957Z,20.70
2017-09-25T02:12:05.464Z,21.37
2017-09-25T02:14:32.088Z,21.80
2017-09-25T02:16:59.673Z,21.47
2017-09-25T02:19:26.312Z,23.50
2017-09-25T02:21:53.460Z,23.90
2017-09-25T02:24:20.089Z,22.83
2017-09-25T02:26:47.544Z,23.13
2017-09-25T02:29:14.318Z,24.10
2017-09-25T02:31:41.002Z,21.67
2017-09-25T02:34:08.420Z,23.43
2017-09-25T02:36:35.061Z,22.30
2017-09-25T02:39:01.786Z,23.60
2017-09-25T02:41:28.629Z,22.37
2017-09-25T02:43:56.011Z,24.30
2017-09-25T02:46:22.748Z,23.53
2017-09-25T02:48:50.210Z,23.87
2017-09-25T02:51:17.634Z,24.67
2017-09-25T02:53:44.988Z,23.53
2017-09-25T02:56:11.637Z,25.80
2017-09-25T02:58:38.374Z,26.20
2017-09-25T03:01:05.772Z,24.37
2017-09-25T03:03:32.375Z,26.30
2017-09-25T03:05:59.001Z,26.97
2017-09-25T03:08:25.734Z,27.30
2017-09-25T03:10:52.442Z,26.03
2017-09-25T03:13:19.287Z,26.63
2017-09-25T03:15:45.845Z,25.67
2017-09-25T03:18:13.385Z,27.37
2017-09-25T03:20:39.984Z,28.03
2017-09-25T03:23:06.769Z,27.03
2017-09-25T03:25:33.403Z,29.93
2017-09-25T03:28:00.488Z,32.90
2017-09-25T03:30:27.795Z,33.27
2017-09-25T03:32:54.532Z,29.17
2017-09-25T03:35:21.144Z,34.70
2017-09-25T03:37:47.673Z,32.90
2017-09-25T03:40:14.162Z,37.87
2017-09-25T03:42:40.795Z,33.07
2017-09-25T03:45:16.216Z,33.90
2017-09-25T03:47:43.796Z,31.77
2017-09-25T03:50:16.499Z,30.03
2017-09-25T03:52:43.036Z,33.00
2017-09-25T03:55:10.327Z,32.07
2017-09-25T03:57:37.068Z,31.27
2017-09-25T04:00:03.809Z,28.83
2017-09-25T04:02:30.584Z,29.43
2017-09-25T04:04:57.231Z,28.33
2017-09-25T04:07:23.896Z,27.30
2017-09-25T04:09:50.539Z,30.83
2017-09-25T04:12:17.288Z,30.17
2017-09-25T04:14:50.692Z,29.23
2017-09-25T04:17:17.433Z,30.77
2017-09-25T04:19:44.183Z,30.00
2017-09-25T04:22:11.535Z,29.20
2017-09-25T04:24:39.332Z,30.40
2017-09-25T04:27:06.068Z,28.73
2017-09-25T04:29:32.856Z,28.63
2017-09-25T04:31:59.589Z,28.47
2017-09-25T04:34:26.095Z,28.77
2017-09-25T04:36:52.759Z,32.80
2017-09-25T04:39:19.420Z,30.83
2017-09-25T04:41:46.027Z,32.00
2017-09-25T04:44:13.589Z,30.57
2017-09-25T04:46:40.266Z,31.03
2017-09-25T04:49:07.587Z,30.63
2017-09-25T04:51:34.351Z,31.90
2017-09-25T04:54:01.015Z,31.33
2017-09-25T04:56:27.722Z,30.60
2017-09-25T04:58:54.463Z,30.60
2017-09-25T05:01:21.994Z,28.90
2017-09-25T05:03:48.603Z,29.83
2017-09-25T05:06:15.418Z,30.07
2017-09-25T05:08:42.028Z,29.60
2017-09-25T05:11:08.774Z,33.07
2017-09-25T05:13:35.492Z,30.43
2017-09-25T05:16:02.196Z,31.80
2017-09-25T05:18:28.865Z,30.20
2017-09-25T05:20:55.465Z,30.90
2017-09-25T05:23:22.252Z,31.13
2017-09-25T05:25:50.205Z,31.90
2017-09-25T05:28:17.567Z,29.53
2017-09-25T05:30:44.187Z,29.73
2017-09-25T05:33:10.960Z,30.30
2017-09-25T05:35:38.158Z,29.40
2017-09-25T05:38:04.854Z,29.20
2017-09-25T05:40:31.635Z,31.33
2017-09-25T05:42:58.549Z,32.97
2017-09-25T05:45:25.231Z,31.50
2017-09-25T05:47:51.917Z,31.40
2017-09-25T05:50:18.548Z,31.40
2017-09-25T05:52:45.343Z,30.70
2017-09-25T05:55:12.165Z,28.30
2017-09-25T05:57:39.945Z,29.17
2017-09-25T06:00:06.555Z,27.13
2017-09-25T06:02:33.347Z,28.50
2017-09-25T06:05:00.948Z,24.87
2017-09-25T06:07:27.760Z,23.70
2017-09-25T06:09:55.439Z,24.10
2017-09-25T06:12:23.000Z,22.60
2017-09-25T06:14:49.715Z,21.10
2017-09-25T06:17:16.590Z,21.17
2017-09-25T06:19:44.231Z,22.00
2017-09-25T06:22:10.987Z,21.90
2017-09-25T06:24:37.855Z,21.60
2017-09-25T06:27:04.667Z,19.90
2017-09-25T06:29:31.477Z,19.87
2017-09-25T06:31:59.085Z,20.87
2017-09-25T06:34:26.135Z,20.90
2017-09-25T06:36:53.045Z,20.17
2017-09-25T06:39:19.959Z,18.97
2017-09-25T06:41:46.560Z,19.67
2017-09-25T06:44:13.175Z,19.37
2017-09-25T06:46:40.808Z,18.27
2017-09-25T06:49:07.559Z,16.80
2017-09-25T06:51:34.332Z,18.50
2017-09-25T06:54:01.813Z,17.30
2017-09-25T06:56:28.712Z,16.93
2017-09-25T06:58:55.325Z,14.87
2017-09-25T07:01:22.114Z,16.17
2017-09-25T07:03:48.711Z,16.07
2017-09-25T07:06:15.784Z,15.40
2017-09-25T07:08:42.365Z,16.33
2017-09-25T07:11:09.168Z,15.03
2017-09-25T07:13:35.880Z,16.57
2017-09-25T07:16:03.680Z,14.73
2017-09-25T07:18:30.415Z,16.40
2017-09-25T07:20:57.059Z,16.33
2017-09-25T07:23:23.819Z,15.80
2017-09-25T07:25:50.734Z,16.83
2017-09-25T07:28:18.221Z,15.37
2017-09-25T07:30:45.924Z,15.43
2017-09-25T07:33:13.030Z,15.53
2017-09-25T07:35:39.868Z,14.00
2017-09-25T07:38:06.611Z,13.83
2017-09-25T07:40:33.300Z,13.57
2017-09-25T07:43:00.001Z,14.13
2017-09-25T07:45:26.700Z,14.13
2017-09-25T07:47:53.655Z,14.20
2017-09-25T07:50:20.429Z,14.30
2017-09-25T07:52:47.310Z,14.50
2017-09-25T07:55:14.189Z,13.43
2017-09-25T07:57:41.028Z,13.13
2017-09-25T08:00:08.349Z,12.83
2017-09-25T08:02:35.232Z,12.53
2017-09-25T08:05:02.004Z,13.43
2017-09-25T08:07:29.673Z,12.30
2017-09-25T08:09:56.483Z,10.70
2017-09-25T08:12:23.326Z,10.77
2017-09-25T08:14:50.088Z,10.00
2017-09-25T08:17:16.928Z,10.70
2017-09-25T08:19:43.662Z,10.17
2017-09-25T08:22:10.637Z,9.77
2017-09-25T08:24:37.327Z,9.97
2017-09-25T08:27:03.963Z,9.47
2017-09-25T08:29:30.952Z,9.73
2017-09-25T08:31:57.839Z,9.00
2017-09-25T08:34:24.543Z,9.73
2017-09-25T08:36:51.223Z,9.77
2017-09-25T08:39:18.034Z,10.50
2017-09-25T08:41:44.660Z,9.33
2017-09-25T08:44:11.279Z,9.93
2017-09-25T08:46:38.068Z,9.63
2017-09-25T08:49:04.916Z,10.00
2017-09-25T08:51:31.547Z,9.50
2017-09-25T08:53:58.259Z,9.57
2017-09-25T08:56:24.885Z,9.90
2017-09-25T08:58:51.632Z,10.30
2017-09-25T09:01:19.107Z,9.57
2017-09-25T09:03:45.908Z,9.70
2017-09-25T09:06:13.490Z,10.10
2017-09-25T09:08:46.387Z,9.53
2017-09-25T09:11:13.047Z,10.60
2017-09-25T09:13:39.831Z,9.77
2017-09-25T09:16:07.520Z,10.70
2017-09-25T09:18:34.157Z,10.40
2017-09-25T09:21:01.577Z,9.77
2017-09-25T09:23:28.390Z,9.67
2017-09-25T09:25:55.090Z,10.13
2017-09-25T09:28:21.916Z,9.67
2017-09-25T09:30:48.809Z,11.77
2017-09-25T09:33:15.663Z,10.20
2017-09-25T09:35:42.656Z,9.40
2017-09-25T09:38:09.306Z,9.77
2017-09-25T09:40:36.135Z,8.90
2017-09-25T09:43:02.959Z,9.07
2017-09-25T09:45:29.808Z,9.33
2017-09-25T09:47:56.646Z,8.97
2017-09-25T09:50:23.469Z,8.60
2017-09-25T09:52:50.391Z,10.43
2017-09-25T09:55:17.258Z,9.70
2017-09-25T09:57:43.743Z,9.30
2017-09-25T10:00:10.654Z,9.07
2017-09-25T10:02:38.071Z,7.83
2017-09-25T10:05:04.756Z,6.97
2017-09-25T10:07:31.440Z,6.83
2017-09-25T10:09:58.279Z,6.13
2017-09-25T10:12:25.060Z,5.77
2017-09-25T10:14:52.635Z,7.13
2017-09-25T10:17:19.458Z,5.87
2017-09-25T10:19:47.014Z,6.33
2017-09-25T10:22:13.830Z,6.10
2017-09-25T10:24:41.173Z,5.70
2017-09-25T10:27:07.776Z,6.67
2017-09-25T10:29:35.372Z,6.60
2017-09-25T10:32:02.447Z,6.50
2017-09-25T10:34:29.010Z,6.27
2017-09-25T10:36:55.873Z,6.00
2017-09-25T10:39:22.507Z,6.10
2017-09-25T10:41:49.180Z,5.23
2017-09-25T10:44:16.628Z,5.50
2017-09-25T10:46:43.352Z,5.90
2017-09-25T10:49:09.973Z,5.37
2017-09-25T10:51:36.691Z,6.07
2017-09-25T10:54:03.537Z,6.37
2017-09-25T10:56:30.124Z,6.30
2017-09-25T10:58:56.832Z,6.10
2017-09-25T11:01:23.602Z,6.07
2017-09-25T11:03:50.445Z,5.20
2017-09-25T11:06:17.507Z,5.70
2017-09-25T11:08:44.200Z,5.60
2017-09-25T11:11:10.959Z,5.40
2017-09-25T11:13:37.662Z,5.30
2017-09-25T11:16:04.349Z,5.20
2017-09-25T11:18:31.091Z,5.10
2017-09-25T11:20:57.867Z,5.33
2017-09-25T11:23:24.569Z,4.77
2017-09-25T11:25:51.355Z,5.13
2017-09-25T11:28:18.092Z,4.50
2017-09-25T11:30:45.630Z,4.77
2017-09-25T11:33:13.312Z,4.10
2017-09-25T11:35:40.285Z,5.20
2017-09-25T11:38:07.071Z,4.90
2017-09-25T11:40:33.915Z,5.37
2017-09-25T11:43:00.642Z,5.57
2017-09-25T11:45:27.200Z,5.20
2017-09-25T11:47:53.921Z,5.47
2017-09-25T11:50:20.641Z,5.07
2017-09-25T11:52:47.325Z,5.67
2017-09-25T11:55:14.020Z,5.80
2017-09-25T11:57:40.920Z,4.87
2017-09-25T12:00:07.646Z,5.37
2017-09-25T12:02:34.419Z,4.10
2017-09-25T12:05:01.040Z,4.47
2017-09-25T12:07:27.824Z,5.77
2017-09-25T12:09:54.630Z,5.10
2017-09-25T12:12:21.667Z,5.50
2017-09-25T12:14:48.636Z,4.80
2017-09-25T12:17:16.079Z,4.80
2017-09-25T12:19:42.887Z,4.10
2017-09-25T12:22:09.592Z,4.87
2017-09-25T12:24:37.071Z,4.30
2017-09-25T12:27:04.547Z,5.07
2017-09-25T12:29:31.246Z,4.43
2017-09-25T12:31:57.994Z,4.50
2017-09-25T12:34:24.971Z,4.60
2017-09-25T12:36:51.836Z,5.10
2017-09-25T12:39:18.567Z,5.60
2017-09-25T12:41:45.221Z,5.37
2017-09-25T12:44:11.769Z,5.00
2017-09-25T12:46:38.462Z,4.87
2017-09-25T12:49:05.956Z,5.23
2017-09-25T12:51:32.729Z,5.83
2017-09-25T12:54:00.109Z,5.83
2017-09-25T12:56:27.010Z,5.67
2017-09-25T12:58:55.064Z,6.10
2017-09-25T13:01:21.684Z,6.50
2017-09-25T13:03:48.311Z,6.20
2017-09-25T13:06:15.961Z,7.50
2017-09-25T13:08:42.739Z,5.90
2017-09-25T13:11:09.416Z,6.23
2017-09-25T13:13:36.115Z,6.23
2017-09-25T13:16:02.933Z,6.63
2017-09-25T13:18:29.783Z,6.70
2017-09-25T13:20:56.460Z,7.40
2017-09-25T13:23:23.048Z,7.53
2017-09-25T13:25:49.877Z,6.30
2017-09-25T13:28:16.338Z,7.60
2017-09-25T13:30:43.012Z,8.20
2017-09-25T13:33:09.657Z,8.57
2017-09-25T13:35:36.757Z,7.80
2017-09-25T13:38:03.492Z,7.73
2017-09-25T13:40:30.106Z,9.07
2017-09-25T13:42:56.820Z,8.73
2017-09-25T13:45:23.404Z,7.83
2017-09-25T13:47:50.062Z,7.03
2017-09-25T13:50:16.894Z,7.60
2017-09-25T13:52:43.670Z,7.67
2017-09-25T13:55:10.601Z,8.83
2017-09-25T13:57:37.392Z,8.40
2017-09-25T14:02:36.761Z,7.77
2017-09-25T14:05:03.356Z,8.57
2017-09-25T14:07:30.173Z,9.00
2017-09-25T14:09:56.763Z,8.17
2017-09-25T14:12:23.450Z,7.40
2017-09-25T14:14:50.362Z,8.20
2017-09-25T14:17:17.083Z,8.67
2017-09-25T14:19:44.603Z,8.20
2017-09-25T14:22:11.415Z,8.23
2017-09-25T14:24:38.380Z,9.37
2017-09-25T14:27:04.958Z,9.10
2017-09-25T14:29:31.661Z,9.87
2017-09-25T14:31:58.311Z,8.70
2017-09-25T14:34:25.045Z,9.27
2017-09-25T14:36:51.733Z,8.60
2017-09-25T14:39:18.292Z,9.60
2017-09-25T14:41:45.005Z,9.50
2017-09-25T14:44:11.654Z,8.80
2017-09-25T14:46:39.103Z,9.03
2017-09-25T14:49:05.736Z,10.07
2017-09-25T14:51:32.440Z,10.20
2017-09-25T14:53:59.067Z,9.17
2017-09-25T14:56:26.673Z,10.10
2017-09-25T14:58:53.430Z,9.60
2017-09-25T15:01:20.278Z,9.60
2017-09-25T15:03:47.034Z,9.93
2017-09-25T15:06:13.972Z,9.13
2017-09-25T15:08:41.399Z,10.80
2017-09-25T15:11:08.287Z,9.87
2017-09-25T15:13:34.898Z,9.40
2017-09-25T15:16:01.677Z,9.43
2017-09-25T15:18:28.209Z,8.80
2017-09-25T15:20:55.052Z,8.83
2017-09-25T15:23:22.004Z,9.50
2017-09-25T15:25:49.637Z,8.50
2017-09-25T15:28:17.027Z,9.30
2017-09-25T15:30:43.761Z,10.33
2017-09-25T15:33:10.492Z,9.03
2017-09-25T15:35:37.344Z,9.30
2017-09-25T15:38:04.368Z,8.70
2017-09-25T15:40:30.893Z,8.93
2017-09-25T15:42:57.682Z,9.47
2017-09-25T15:45:24.311Z,10.00
2017-09-25T15:47:51.009Z,10.20
2017-09-25T15:50:17.605Z,10.93
2017-09-25T15:52:44.095Z,10.93
2017-09-25T15:55:10.739Z,12.27
2017-09-25T15:57:37.275Z,11.07
2017-09-25T16:00:04.006Z,10.57
2017-09-25T16:02:31.252Z,10.70
2017-09-25T16:04:58.096Z,11.40
2017-09-25T16:07:26.089Z,11.07
2017-09-25T16:09:53.193Z,10.10
2017-09-25T16:12:20.065Z,10.90
2017-09-25T16:14:47.651Z,11.23
2017-09-25T16:17:14.400Z,11.50
2017-09-25T16:19:41.150Z,11.27
2017-09-25T16:22:08.137Z,11.10
2017-09-25T16:24:35.716Z,10.97
2017-09-25T16:27:03.357Z,10.67
2017-09-25T16:29:30.352Z,10.93
2017-09-25T16:31:56.942Z,12.17
2017-09-25T16:34:23.673Z,10.93
2017-09-25T16:36:51.436Z,12.77
2017-09-25T16:39:18.451Z,11.47
2017-09-25T16:41:45.289Z,13.00
2017-09-25T16:44:12.038Z,13.90
2017-09-25T16:46:39.693Z,11.87
2017-09-25T16:49:06.474Z,11.40
2017-09-25T16:51:33.188Z,13.70
2017-09-25T16:54:07.455Z,13.47
2017-09-25T16:56:34.675Z,13.10
2017-09-25T16:59:01.496Z,14.20
2017-09-25T17:01:28.232Z,15.20
2017-09-25T17:03:55.617Z,13.57
2017-09-25T17:06:22.324Z,15.00
2017-09-25T17:08:48.902Z,14.90
2017-09-25T17:11:15.614Z,15.70
2017-09-25T17:13:42.156Z,14.70
2017-09-25T17:16:08.916Z,13.30
2017-09-25T17:18:36.503Z,13.50
2017-09-25T17:21:03.333Z,13.20
2017-09-25T17:23:30.173Z,14.10
2017-09-25T17:25:57.626Z,13.43
2017-09-25T17:28:24.141Z,13.10
2017-09-25T17:30:50.947Z,13.23
2017-09-25T17:33:17.823Z,13.10
2017-09-25T17:35:44.518Z,12.87
2017-09-25T17:38:11.392Z,14.00
2017-09-25T17:40:39.303Z,12.17
2017-09-25T17:43:07.029Z,13.83
2017-09-25T17:45:33.940Z,14.57
2017-09-25T17:48:01.598Z,15.70
2017-09-25T17:50:28.528Z,15.37
2017-09-25T17:52:55.304Z,17.37
2017-09-25T17:55:22.103Z,17.60
2017-09-25T17:57:49.125Z,15.77
2017-09-25T18:00:16.905Z,17.80
2017-09-25T18:02:43.874Z,17.00
2017-09-25T18:05:10.743Z,16.47
2017-09-25T18:07:39.660Z,17.63
2017-09-25T18:10:08.189Z,16.60
2017-09-25T18:12:34.884Z,17.47
2017-09-25T18:15:01.778Z,17.17
2017-09-25T18:17:28.509Z,17.17
2017-09-25T18:19:55.173Z,16.97
2017-09-25T18:22:22.835Z,17.60
2017-09-25T18:24:50.592Z,18.03
2017-09-25T18:27:17.404Z,18.73
2017-09-25T18:29:43.984Z,16.53
2017-09-25T18:32:11.761Z,19.00
2017-09-25T18:34:39.372Z,17.67
2017-09-25T18:37:06.198Z,18.90
2017-09-25T18:39:33.269Z,16.40
2017-09-25T18:42:01.377Z,16.67
2017-09-25T18:44:28.631Z,16.00
2017-09-25T18:46:56.116Z,17.07
2017-09-25T18:49:22.862Z,17.10
2017-09-25T18:51:49.878Z,17.30
2017-09-25T18:54:17.029Z,16.60
2017-09-25T18:56:43.776Z,15.57
2017-09-25T18:59:10.829Z,15.00
2017-09-25T19:01:37.621Z,15.37
2017-09-25T19:04:04.613Z,16.00
2017-09-25T19:06:31.441Z,14.43
2017-09-25T19:08:58.239Z,14.50
2017-09-25T19:11:24.956Z,15.30
2017-09-25T19:13:52.790Z,14.70
2017-09-25T19:16:20.229Z,14.97
2017-09-25T19:18:46.947Z,16.23
2017-09-25T19:21:13.997Z,16.07
2017-09-25T19:23:41.097Z,14.10
2017-09-25T19:26:08.398Z,14.97
2017-09-25T19:28:35.006Z,14.23
2017-09-25T19:31:02.783Z,15.37
2017-09-25T19:33:29.563Z,14.30
2017-09-25T19:35:56.438Z,15.37
2017-09-25T19:38:23.337Z,15.30
2017-09-25T19:40:50.071Z,15.90
2017-09-25T19:43:16.838Z,14.20
2017-09-25T19:45:44.302Z,15.20
2017-09-25T19:48:17.024Z,16.23
2017-09-25T19:51:01.228Z,13.70
2017-09-25T19:53:28.309Z,15.47
2017-09-25T19:55:55.124Z,14.83
2017-09-25T19:58:23.430Z,15.03
2017-09-25T20:00:50.427Z,17.03
2017-09-25T20:03:17.219Z,15.37
2017-09-25T20:05:43.979Z,15.40
2017-09-25T20:08:11.169Z,15.70
2017-09-25T20:10:38.033Z,16.40
2017-09-25T20:13:05.025Z,15.03
2017-09-25T20:15:34.542Z,14.63
2017-09-25T20:18:02.518Z,16.07
2017-09-25T20:20:29.310Z,14.53
2017-09-25T20:22:56.023Z,15.63
2017-09-25T20:25:23.013Z,15.17
2017-09-25T20:27:49.711Z,14.80
2017-09-25T20:30:16.520Z,16.10
2017-09-25T20:32:46.880Z,15.23
2017-09-25T20:35:14.360Z,14.60
2017-09-25T20:37:41.436Z,15.30
2017-09-25T20:40:08.288Z,15.07
2017-09-25T20:42:45.983Z,14.40
2017-09-25T20:45:12.853Z,16.10
2017-09-25T20:47:40.440Z,16.70
2017-09-25T20:50:07.997Z,15.97
2017-09-25T20:52:34.524Z,14.63
2017-09-25T20:55:01.295Z,17.50
2017-09-25T20:57:28.293Z,17.00
2017-09-25T20:59:55.217Z,16.20
2017-09-25T21:02:22.123Z,15.17
2017-09-25T21:04:49.127Z,15.20
2017-09-25T21:07:15.909Z,16.03
2017-09-25T21:09:42.785Z,17.03
2017-09-25T21:12:10.334Z,17.63
2017-09-25T21:14:37.176Z,16.53
2017-09-25T21:17:04.703Z,18.60
2017-09-25T21:19:31.697Z,18.90
2017-09-25T21:21:59.245Z,21.23
2017-09-25T21:24:25.837Z,21.10
2017-09-25T21:29:56.000Z,18.80
2017-09-25T21:32:23.006Z,21.07
2017-09-25T21:34:49.843Z,20.50
2017-09-25T21:37:16.472Z,22.27
2017-09-25T21:39:43.907Z,22.50
2017-09-25T21:42:10.463Z,20.57
2017-09-25T21:44:37.270Z,21.97
2017-09-25T21:47:04.368Z,20.73
2017-09-25T21:49:32.020Z,22.43
2017-09-25T21:51:58.595Z,21.73
2017-09-25T21:54:25.359Z,21.20
2017-09-25T21:56:52.864Z,21.80
2017-09-25T21:59:19.474Z,20.77
2017-09-25T22:01:46.423Z,22.53
2017-09-25T22:04:13.315Z,20.17
2017-09-25T22:06:40.056Z,21.47
2017-09-25T22:09:07.193Z,20.43
2017-09-25T22:11:34.102Z,21.90
2017-09-25T22:14:00.715Z,20.40
2017-09-25T22:16:28.465Z,20.50
2017-09-25T22:18:56.037Z,18.83
2017-09-25T22:21:23.186Z,21.57
2017-09-25T22:23:49.920Z,20.03
2017-09-25T22:26:16.571Z,18.67
2017-09-25T22:28:43.487Z,19.30
2017-09-25T22:31:11.528Z,21.43
2017-09-25T22:33:39.002Z,19.63
2017-09-25T22:36:06.140Z,21.17
2017-09-25T22:38:32.811Z,19.63
2017-09-25T22:40:59.721Z,21.07
2017-09-25T22:43:41.303Z,21.13
2017-09-25T22:46:08.130Z,19.30
2017-09-25T22:48:35.449Z,21.50
2017-09-25T22:51:02.279Z,20.20
2017-09-25T22:53:28.950Z,20.00
2017-09-25T22:55:56.372Z,18.40
2017-09-25T22:58:23.265Z,19.33
2017-09-25T23:00:50.020Z,20.43
2017-09-25T23:03:16.925Z,21.07
2017-09-25T23:05:50.554Z,19.47
2017-09-25T23:08:17.180Z,21.43
2017-09-25T23:10:44.433Z,18.33
2017-09-25T23:13:11.492Z,19.67
2017-09-25T23:15:38.026Z,19.37
2017-09-25T23:18:04.768Z,20.07
2017-09-25T23:20:31.568Z,19.90
2017-09-25T23:22:58.496Z,21.07
2017-09-25T23:25:25.119Z,20.37
2017-09-25T23:27:52.028Z,20.67
2017-09-25T23:30:19.768Z,21.23
2017-09-25T23:32:46.456Z,20.47
2017-09-25T23:35:13.234Z,23.10
2017-09-25T23:37:40.914Z,20.37
2017-09-25T23:40:07.727Z,21.63
2017-09-25T23:42:34.313Z,22.00
2017-09-25T23:45:01.010Z,23.43
2017-09-25T23:47:27.706Z,21.47
2017-09-25T23:49:54.965Z,21.00
2017-09-25T23:52:21.624Z,23.00
2017-09-25T23:54:48.509Z,23.10
2017-09-25T23:57:15.267Z,24.60
2017-09-25T23:59:42.555Z,22.93
